sensor_id;sensor_type;location;lat;lon;timestamp;temperature;humidity
16838;DHT22;19510;54.486;9.046;2024-01-27T00:00:41;5.90;99.90
16838;DHT22;19510;54.486;9.046;2024-01-27T00:03:07;5.90;99.90
16838;DHT22;19510;54.486;9.046;2024-01-27T00:05:35;6.00;99.90
16838;DHT22;19510;54.486;9.046;2024-01-27T00:08:01;6.00;99.90
16838;DHT22;19510;54.486;9.046;2024-01-27T00:10:27;6.00;99.90
16838;DHT22;19510;54.486;9.046;2024-01-27T00:12:55;5.90;99.90
16838;DHT22;19510;54.486;9.046;2024-01-27T00:25:42;5.90;99.90
16838;DHT22;19510;54.486;9.046;2024-01-27T00:28:08;5.90;99.90
16838;DHT22;19510;54.486;9.046;2024-01-27T00:30:34;5.90;99.90
16838;DHT22;19510;54.486;9.046;2024-01-27T00:33:00;5.90;99.90
16838;DHT22;19510;54.486;9.046;2024-01-27T00:35:26;5.90;99.90
16838;DHT22;19510;54.486;9.046;2024-01-27T00:37:53;5.90;99.90
16838;DHT22;19510;54.486;9.046;2024-01-27T00:40:20;5.90;99.90
16838;DHT22;19510;54.486;9.046;2024-01-27T00:42:48;5.90;99.90
16838;DHT22;19510;54.486;9.046;2024-01-27T00:45:16;5.90;99.90
16838;DHT22;19510;54.486;9.046;2024-01-27T00:47:43;5.90;99.90
16838;DHT22;19510;54.486;9.046;2024-01-27T00:50:09;5.90;99.90
16838;DHT22;19510;54.486;9.046;2024-01-27T00:52:35;5.90;99.90
16838;DHT22;19510;54.486;9.046;2024-01-27T00:55:01;5.90;99.90
16838;DHT22;19510;54.486;9.046;2024-01-27T00:57:27;5.90;99.90
16838;DHT22;19510;54.486;9.046;2024-01-27T00:59:52;5.90;99.90
16838;DHT22;19510;54.486;9.046;2024-01-27T01:02:18;5.80;99.90
16838;DHT22;19510;54.486;9.046;2024-01-27T01:04:47;5.80;99.90
16838;DHT22;19510;54.486;9.046;2024-01-27T01:07:13;5.90;99.90
16838;DHT22;19510;54.486;9.046;2024-01-27T01:09:39;5.90;99.90
16838;DHT22;19510;54.486;9.046;2024-01-27T01:12:08;6.00;99.90
16838;DHT22;19510;54.486;9.046;2024-01-27T01:14:38;5.90;99.90
16838;DHT22;19510;54.486;9.046;2024-01-27T01:17:08;5.90;99.90
16838;DHT22;19510;54.486;9.046;2024-01-27T01:19:55;5.90;99.90
16838;DHT22;19510;54.486;9.046;2024-01-27T01:22:25;5.90;99.90
16838;DHT22;19510;54.486;9.046;2024-01-27T01:24:51;6.00;99.90
16838;DHT22;19510;54.486;9.046;2024-01-27T01:27:17;6.00;99.90
16838;DHT22;19510;54.486;9.046;2024-01-27T01:29:48;5.90;99.90
16838;DHT22;19510;54.486;9.046;2024-01-27T01:32:14;5.90;99.90
16838;DHT22;19510;54.486;9.046;2024-01-27T01:34:45;5.90;99.90
16838;DHT22;19510;54.486;9.046;2024-01-27T01:37:11;5.90;99.90
16838;DHT22;19510;54.486;9.046;2024-01-27T01:39:36;5.90;99.90
16838;DHT22;19510;54.486;9.046;2024-01-27T01:42:02;5.90;99.90
16838;DHT22;19510;54.486;9.046;2024-01-27T01:44:30;5.90;99.90
16838;DHT22;19510;54.486;9.046;2024-01-27T01:46:57;5.90;99.90
16838;DHT22;19510;54.486;9.046;2024-01-27T01:49:23;5.90;99.90
16838;DHT22;19510;54.486;9.046;2024-01-27T01:51:50;5.90;99.90
16838;DHT22;19510;54.486;9.046;2024-01-27T01:54:15;5.90;99.90
16838;DHT22;19510;54.486;9.046;2024-01-27T02:06:37;5.90;99.90
16838;DHT22;19510;54.486;9.046;2024-01-27T02:09:02;5.90;99.90
16838;DHT22;19510;54.486;9.046;2024-01-27T02:11:28;5.90;99.90
16838;DHT22;19510;54.486;9.046;2024-01-27T02:13:54;5.90;99.90
16838;DHT22;19510;54.486;9.046;2024-01-27T02:16:20;5.90;99.90
16838;DHT22;19510;54.486;9.046;2024-01-27T02:18:47;5.90;99.90
16838;DHT22;19510;54.486;9.046;2024-01-27T02:21:12;5.90;99.90
16838;DHT22;19510;54.486;9.046;2024-01-27T02:23:38;5.90;99.90
16838;DHT22;19510;54.486;9.046;2024-01-27T02:26:05;5.80;99.90
16838;DHT22;19510;54.486;9.046;2024-01-27T02:28:32;5.80;99.90
16838;DHT22;19510;54.486;9.046;2024-01-27T02:30:59;5.80;99.90
16838;DHT22;19510;54.486;9.046;2024-01-27T02:33:30;5.80;99.90
16838;DHT22;19510;54.486;9.046;2024-01-27T02:39:18;5.80;99.90
16838;DHT22;19510;54.486;9.046;2024-01-27T02:41:43;5.80;99.90
16838;DHT22;19510;54.486;9.046;2024-01-27T02:44:09;5.80;99.90
16838;DHT22;19510;54.486;9.046;2024-01-27T02:46:35;5.80;99.90
16838;DHT22;19510;54.486;9.046;2024-01-27T02:49:00;5.80;99.90
16838;DHT22;19510;54.486;9.046;2024-01-27T02:51:26;5.80;99.90
16838;DHT22;19510;54.486;9.046;2024-01-27T02:57:14;5.80;99.90
16838;DHT22;19510;54.486;9.046;2024-01-27T02:59:47;5.80;99.90
16838;DHT22;19510;54.486;9.046;2024-01-27T03:02:13;5.80;99.90
16838;DHT22;19510;54.486;9.046;2024-01-27T03:04:39;5.80;99.90
16838;DHT22;19510;54.486;9.046;2024-01-27T03:07:05;5.80;99.90
16838;DHT22;19510;54.486;9.046;2024-01-27T03:09:31;5.80;99.90
16838;DHT22;19510;54.486;9.046;2024-01-27T03:11:57;5.80;99.90
16838;DHT22;19510;54.486;9.046;2024-01-27T03:14:23;5.80;99.90
16838;DHT22;19510;54.486;9.046;2024-01-27T03:16:49;5.80;99.90
16838;DHT22;19510;54.486;9.046;2024-01-27T03:19:14;5.80;99.90
16838;DHT22;19510;54.486;9.046;2024-01-27T03:21:40;5.80;99.90
16838;DHT22;19510;54.486;9.046;2024-01-27T03:24:06;5.80;99.90
16838;DHT22;19510;54.486;9.046;2024-01-27T03:26:32;5.80;99.90
16838;DHT22;19510;54.486;9.046;2024-01-27T03:28:57;5.80;99.90
16838;DHT22;19510;54.486;9.046;2024-01-27T03:31:32;5.80;99.90
16838;DHT22;19510;54.486;9.046;2024-01-27T03:33:59;5.80;99.90
16838;DHT22;19510;54.486;9.046;2024-01-27T03:36:25;5.80;99.90
16838;DHT22;19510;54.486;9.046;2024-01-27T03:38:51;5.80;99.90
16838;DHT22;19510;54.486;9.046;2024-01-27T03:41:16;5.80;99.90
16838;DHT22;19510;54.486;9.046;2024-01-27T03:43:45;5.80;99.90
16838;DHT22;19510;54.486;9.046;2024-01-27T03:46:10;5.80;99.90
16838;DHT22;19510;54.486;9.046;2024-01-27T03:48:36;5.80;99.90
16838;DHT22;19510;54.486;9.046;2024-01-27T03:51:02;5.80;99.90
16838;DHT22;19510;54.486;9.046;2024-01-27T03:53:28;5.80;99.90
16838;DHT22;19510;54.486;9.046;2024-01-27T03:55:54;5.80;99.90
16838;DHT22;19510;54.486;9.046;2024-01-27T03:58:19;5.70;99.90
16838;DHT22;19510;54.486;9.046;2024-01-27T04:00:45;5.70;99.90
16838;DHT22;19510;54.486;9.046;2024-01-27T04:03:31;5.80;99.90
16838;DHT22;19510;54.486;9.046;2024-01-27T04:06:25;5.70;99.90
16838;DHT22;19510;54.486;9.046;2024-01-27T04:12:31;5.80;99.90
16838;DHT22;19510;54.486;9.046;2024-01-27T04:15:02;5.80;99.90
16838;DHT22;19510;54.486;9.046;2024-01-27T04:17:32;5.80;99.90
16838;DHT22;19510;54.486;9.046;2024-01-27T04:19:57;5.70;99.90
16838;DHT22;19510;54.486;9.046;2024-01-27T04:22:23;5.70;99.90
16838;DHT22;19510;54.486;9.046;2024-01-27T04:24:49;5.70;99.90
16838;DHT22;19510;54.486;9.046;2024-01-27T04:27:14;5.70;99.90
16838;DHT22;19510;54.486;9.046;2024-01-27T04:29:40;5.70;99.90
16838;DHT22;19510;54.486;9.046;2024-01-27T04:32:07;5.70;99.90
16838;DHT22;19510;54.486;9.046;2024-01-27T04:34:32;5.80;99.90
16838;DHT22;19510;54.486;9.046;2024-01-27T04:36:58;5.70;99.90
16838;DHT22;19510;54.486;9.046;2024-01-27T04:39:24;5.70;99.90
16838;DHT22;19510;54.486;9.046;2024-01-27T04:41:49;5.80;99.90
16838;DHT22;19510;54.486;9.046;2024-01-27T04:44:15;5.80;99.90
16838;DHT22;19510;54.486;9.046;2024-01-27T04:46:41;5.80;99.90
16838;DHT22;19510;54.486;9.046;2024-01-27T04:49:07;5.70;99.90
16838;DHT22;19510;54.486;9.046;2024-01-27T04:51:32;5.70;99.90
16838;DHT22;19510;54.486;9.046;2024-01-27T04:53:58;5.80;99.90
16838;DHT22;19510;54.486;9.046;2024-01-27T04:56:24;5.80;99.90
16838;DHT22;19510;54.486;9.046;2024-01-27T04:58:49;5.80;99.90
16838;DHT22;19510;54.486;9.046;2024-01-27T05:01:15;5.70;99.90
16838;DHT22;19510;54.486;9.046;2024-01-27T05:03:41;5.80;99.90
16838;DHT22;19510;54.486;9.046;2024-01-27T05:06:10;5.70;99.90
16838;DHT22;19510;54.486;9.046;2024-01-27T05:08:36;5.70;99.90
16838;DHT22;19510;54.486;9.046;2024-01-27T05:11:02;5.80;99.90
16838;DHT22;19510;54.486;9.046;2024-01-27T05:13:28;5.80;99.90
16838;DHT22;19510;54.486;9.046;2024-01-27T05:15:53;5.70;99.90
16838;DHT22;19510;54.486;9.046;2024-01-27T05:18:19;5.80;99.90
16838;DHT22;19510;54.486;9.046;2024-01-27T05:20:45;5.80;99.90
16838;DHT22;19510;54.486;9.046;2024-01-27T05:26:32;5.70;99.90
16838;DHT22;19510;54.486;9.046;2024-01-27T05:28:58;5.80;99.90
16838;DHT22;19510;54.486;9.046;2024-01-27T05:31:26;5.70;99.90
16838;DHT22;19510;54.486;9.046;2024-01-27T05:33:52;5.70;99.90
16838;DHT22;19510;54.486;9.046;2024-01-27T05:36:18;5.80;99.90
16838;DHT22;19510;54.486;9.046;2024-01-27T05:38:43;5.70;99.90
16838;DHT22;19510;54.486;9.046;2024-01-27T05:41:09;5.70;99.90
16838;DHT22;19510;54.486;9.046;2024-01-27T05:43:35;5.70;99.90
16838;DHT22;19510;54.486;9.046;2024-01-27T05:46:00;5.70;99.90
16838;DHT22;19510;54.486;9.046;2024-01-27T05:48:29;5.80;99.90
16838;DHT22;19510;54.486;9.046;2024-01-27T05:50:59;5.70;99.90
16838;DHT22;19510;54.486;9.046;2024-01-27T05:53:25;5.70;99.90
16838;DHT22;19510;54.486;9.046;2024-01-27T05:55:51;5.60;99.90
16838;DHT22;19510;54.486;9.046;2024-01-27T05:58:18;5.70;99.90
16838;DHT22;19510;54.486;9.046;2024-01-27T06:00:47;5.70;99.90
16838;DHT22;19510;54.486;9.046;2024-01-27T06:03:12;5.60;99.90
16838;DHT22;19510;54.486;9.046;2024-01-27T06:05:38;5.70;99.90
16838;DHT22;19510;54.486;9.046;2024-01-27T06:08:05;5.60;99.90
16838;DHT22;19510;54.486;9.046;2024-01-27T06:10:31;5.70;99.90
16838;DHT22;19510;54.486;9.046;2024-01-27T06:12:57;5.70;99.90
16838;DHT22;19510;54.486;9.046;2024-01-27T06:15:23;5.70;99.90
16838;DHT22;19510;54.486;9.046;2024-01-27T06:17:48;5.70;99.90
16838;DHT22;19510;54.486;9.046;2024-01-27T06:20:14;5.70;99.90
16838;DHT22;19510;54.486;9.046;2024-01-27T06:22:45;5.60;99.90
16838;DHT22;19510;54.486;9.046;2024-01-27T06:25:11;5.60;99.90
16838;DHT22;19510;54.486;9.046;2024-01-27T06:27:37;5.60;99.90
16838;DHT22;19510;54.486;9.046;2024-01-27T06:30:04;5.60;99.90
16838;DHT22;19510;54.486;9.046;2024-01-27T06:35:53;5.60;99.90
16838;DHT22;19510;54.486;9.046;2024-01-27T06:38:18;5.60;99.90
16838;DHT22;19510;54.486;9.046;2024-01-27T06:40:44;5.60;99.90
16838;DHT22;19510;54.486;9.046;2024-01-27T06:43:12;5.60;99.90
16838;DHT22;19510;54.486;9.046;2024-01-27T06:45:39;5.50;99.90
16838;DHT22;19510;54.486;9.046;2024-01-27T06:48:05;5.50;99.90
16838;DHT22;19510;54.486;9.046;2024-01-27T06:50:32;5.60;99.90
16838;DHT22;19510;54.486;9.046;2024-01-27T06:52:58;5.50;99.90
16838;DHT22;19510;54.486;9.046;2024-01-27T06:55:23;5.40;99.90
16838;DHT22;19510;54.486;9.046;2024-01-27T06:57:49;5.30;99.90
16838;DHT22;19510;54.486;9.046;2024-01-27T07:00:15;5.30;99.90
16838;DHT22;19510;54.486;9.046;2024-01-27T07:02:41;5.30;99.90
16838;DHT22;19510;54.486;9.046;2024-01-27T07:05:08;5.40;99.90
16838;DHT22;19510;54.486;9.046;2024-01-27T07:07:34;5.30;99.90
16838;DHT22;19510;54.486;9.046;2024-01-27T07:09:59;5.30;99.90
16838;DHT22;19510;54.486;9.046;2024-01-27T07:12:25;5.30;99.90
16838;DHT22;19510;54.486;9.046;2024-01-27T07:14:51;5.20;99.90
16838;DHT22;19510;54.486;9.046;2024-01-27T07:17:17;5.20;99.90
16838;DHT22;19510;54.486;9.046;2024-01-27T07:19:43;5.20;99.90
16838;DHT22;19510;54.486;9.046;2024-01-27T07:22:09;5.20;99.90
16838;DHT22;19510;54.486;9.046;2024-01-27T07:24:34;5.20;99.90
16838;DHT22;19510;54.486;9.046;2024-01-27T07:27:00;5.10;99.90
16838;DHT22;19510;54.486;9.046;2024-01-27T07:29:27;5.10;99.90
16838;DHT22;19510;54.486;9.046;2024-01-27T07:31:52;5.10;99.90
16838;DHT22;19510;54.486;9.046;2024-01-27T07:34:18;5.10;99.90
16838;DHT22;19510;54.486;9.046;2024-01-27T07:36:44;5.10;99.90
16838;DHT22;19510;54.486;9.046;2024-01-27T07:42:33;5.00;99.90
16838;DHT22;19510;54.486;9.046;2024-01-27T07:44:58;5.10;99.90
16838;DHT22;19510;54.486;9.046;2024-01-27T07:47:24;5.00;99.90
16838;DHT22;19510;54.486;9.046;2024-01-27T07:49:50;5.00;99.90
16838;DHT22;19510;54.486;9.046;2024-01-27T07:52:16;4.90;99.90
16838;DHT22;19510;54.486;9.046;2024-01-27T07:54:41;5.00;99.90
16838;DHT22;19510;54.486;9.046;2024-01-27T07:57:07;5.00;99.90
16838;DHT22;19510;54.486;9.046;2024-01-27T07:59:33;4.90;99.90
16838;DHT22;19510;54.486;9.046;2024-01-27T08:01:59;5.00;99.90
16838;DHT22;19510;54.486;9.046;2024-01-27T08:04:25;4.90;99.90
16838;DHT22;19510;54.486;9.046;2024-01-27T08:06:51;5.00;99.90
16838;DHT22;19510;54.486;9.046;2024-01-27T08:09:17;5.00;99.90
16838;DHT22;19510;54.486;9.046;2024-01-27T08:15:06;5.10;99.90
16838;DHT22;19510;54.486;9.046;2024-01-27T08:17:31;5.10;99.90
16838;DHT22;19510;54.486;9.046;2024-01-27T08:19:57;5.10;99.90
16838;DHT22;19510;54.486;9.046;2024-01-27T08:22:23;5.20;99.90
16838;DHT22;19510;54.486;9.046;2024-01-27T08:24:48;5.20;99.90
16838;DHT22;19510;54.486;9.046;2024-01-27T08:27:14;5.30;99.90
16838;DHT22;19510;54.486;9.046;2024-01-27T08:29:40;5.30;99.90
16838;DHT22;19510;54.486;9.046;2024-01-27T08:32:06;5.30;99.90
16838;DHT22;19510;54.486;9.046;2024-01-27T08:34:32;5.40;99.90
16838;DHT22;19510;54.486;9.046;2024-01-27T08:37:00;5.40;99.90
16838;DHT22;19510;54.486;9.046;2024-01-27T08:39:26;5.40;99.90
16838;DHT22;19510;54.486;9.046;2024-01-27T08:41:52;5.50;99.90
16838;DHT22;19510;54.486;9.046;2024-01-27T08:44:17;5.50;99.90
16838;DHT22;19510;54.486;9.046;2024-01-27T08:46:43;5.50;99.90
16838;DHT22;19510;54.486;9.046;2024-01-27T08:49:09;5.50;99.90
16838;DHT22;19510;54.486;9.046;2024-01-27T08:51:34;5.60;99.90
16838;DHT22;19510;54.486;9.046;2024-01-27T08:54:01;5.60;99.90
16838;DHT22;19510;54.486;9.046;2024-01-27T08:56:27;5.70;99.90
16838;DHT22;19510;54.486;9.046;2024-01-27T08:58:53;5.70;99.90
16838;DHT22;19510;54.486;9.046;2024-01-27T09:01:19;5.80;99.90
16838;DHT22;19510;54.486;9.046;2024-01-27T09:03:45;6.00;99.90
16838;DHT22;19510;54.486;9.046;2024-01-27T09:06:11;5.90;99.90
16838;DHT22;19510;54.486;9.046;2024-01-27T09:08:37;5.90;99.90
16838;DHT22;19510;54.486;9.046;2024-01-27T09:11:03;6.00;99.90
16838;DHT22;19510;54.486;9.046;2024-01-27T09:13:29;6.00;99.90
16838;DHT22;19510;54.486;9.046;2024-01-27T09:15:56;6.10;99.90
16838;DHT22;19510;54.486;9.046;2024-01-27T09:18:23;6.10;99.90
16838;DHT22;19510;54.486;9.046;2024-01-27T09:20:50;6.10;99.90
16838;DHT22;19510;54.486;9.046;2024-01-27T09:23:16;6.20;99.90
16838;DHT22;19510;54.486;9.046;2024-01-27T09:25:41;6.20;99.90
16838;DHT22;19510;54.486;9.046;2024-01-27T09:28:07;6.20;99.90
16838;DHT22;19510;54.486;9.046;2024-01-27T09:30:33;6.20;99.90
16838;DHT22;19510;54.486;9.046;2024-01-27T09:32:58;6.20;99.90
16838;DHT22;19510;54.486;9.046;2024-01-27T09:35:24;6.30;99.90
16838;DHT22;19510;54.486;9.046;2024-01-27T09:37:50;6.30;99.90
16838;DHT22;19510;54.486;9.046;2024-01-27T09:40:15;6.40;99.90
16838;DHT22;19510;54.486;9.046;2024-01-27T09:42:56;6.40;99.90
16838;DHT22;19510;54.486;9.046;2024-01-27T09:45:26;6.40;99.90
16838;DHT22;19510;54.486;9.046;2024-01-27T09:47:53;6.40;99.90
16838;DHT22;19510;54.486;9.046;2024-01-27T09:50:19;6.40;99.90
16838;DHT22;19510;54.486;9.046;2024-01-27T09:52:46;6.50;99.90
16838;DHT22;19510;54.486;9.046;2024-01-27T09:55:12;6.50;99.90
16838;DHT22;19510;54.486;9.046;2024-01-27T09:57:38;6.50;99.90
16838;DHT22;19510;54.486;9.046;2024-01-27T10:00:06;6.50;99.90
16838;DHT22;19510;54.486;9.046;2024-01-27T10:02:35;6.50;99.90
16838;DHT22;19510;54.486;9.046;2024-01-27T10:05:04;6.60;99.90
16838;DHT22;19510;54.486;9.046;2024-01-27T10:07:31;6.60;99.90
16838;DHT22;19510;54.486;9.046;2024-01-27T10:09:58;6.70;99.90
16838;DHT22;19510;54.486;9.046;2024-01-27T10:12:26;6.70;99.90
16838;DHT22;19510;54.486;9.046;2024-01-27T10:14:53;6.70;99.90
16838;DHT22;19510;54.486;9.046;2024-01-27T10:17:23;6.80;99.90
16838;DHT22;19510;54.486;9.046;2024-01-27T10:20:02;6.80;99.90
16838;DHT22;19510;54.486;9.046;2024-01-27T10:22:36;6.80;99.90
16838;DHT22;19510;54.486;9.046;2024-01-27T10:25:02;6.90;99.90
16838;DHT22;19510;54.486;9.046;2024-01-27T10:27:28;6.90;99.90
16838;DHT22;19510;54.486;9.046;2024-01-27T10:29:54;7.00;99.90
16838;DHT22;19510;54.486;9.046;2024-01-27T10:32:23;7.00;99.90
16838;DHT22;19510;54.486;9.046;2024-01-27T10:35:04;7.10;99.90
16838;DHT22;19510;54.486;9.046;2024-01-27T10:37:31;7.10;99.90
16838;DHT22;19510;54.486;9.046;2024-01-27T10:42:36;7.20;99.90
16838;DHT22;19510;54.486;9.046;2024-01-27T10:45:03;7.30;99.90
16838;DHT22;19510;54.486;9.046;2024-01-27T10:47:31;7.30;99.90
16838;DHT22;19510;54.486;9.046;2024-01-27T10:49:58;7.30;99.90
16838;DHT22;19510;54.486;9.046;2024-01-27T10:52:29;7.30;99.90
16838;DHT22;19510;54.486;9.046;2024-01-27T10:55:03;7.40;99.90
16838;DHT22;19510;54.486;9.046;2024-01-27T10:57:33;7.40;99.90
16838;DHT22;19510;54.486;9.046;2024-01-27T11:00:01;7.50;99.90
16838;DHT22;19510;54.486;9.046;2024-01-27T11:02:33;7.50;99.90
16838;DHT22;19510;54.486;9.046;2024-01-27T11:05:02;7.50;99.90
16838;DHT22;19510;54.486;9.046;2024-01-27T11:07:33;7.60;99.90
16838;DHT22;19510;54.486;9.046;2024-01-27T11:09:59;7.60;99.90
16838;DHT22;19510;54.486;9.046;2024-01-27T11:12:25;7.60;99.90
16838;DHT22;19510;54.486;9.046;2024-01-27T11:14:52;7.60;99.90
16838;DHT22;19510;54.486;9.046;2024-01-27T11:17:19;7.60;99.90
16838;DHT22;19510;54.486;9.046;2024-01-27T11:19:45;7.60;99.90
16838;DHT22;19510;54.486;9.046;2024-01-27T11:22:24;7.70;99.90
16838;DHT22;19510;54.486;9.046;2024-01-27T11:27:42;7.70;99.90
16838;DHT22;19510;54.486;9.046;2024-01-27T11:30:28;7.80;99.90
16838;DHT22;19510;54.486;9.046;2024-01-27T11:32:57;7.90;99.90
16838;DHT22;19510;54.486;9.046;2024-01-27T11:35:25;7.90;99.90
16838;DHT22;19510;54.486;9.046;2024-01-27T11:37:54;8.00;99.90
16838;DHT22;19510;54.486;9.046;2024-01-27T11:40:20;7.90;99.90
16838;DHT22;19510;54.486;9.046;2024-01-27T11:42:59;8.00;99.90
16838;DHT22;19510;54.486;9.046;2024-01-27T11:45:26;8.00;99.90
16838;DHT22;19510;54.486;9.046;2024-01-27T11:47:57;8.10;99.90
16838;DHT22;19510;54.486;9.046;2024-01-27T11:50:23;8.10;99.90
16838;DHT22;19510;54.486;9.046;2024-01-27T11:52:49;8.10;99.90
16838;DHT22;19510;54.486;9.046;2024-01-27T11:55:21;8.10;99.90
16838;DHT22;19510;54.486;9.046;2024-01-27T11:57:51;8.10;99.90
16838;DHT22;19510;54.486;9.046;2024-01-27T12:00:17;8.10;99.90
16838;DHT22;19510;54.486;9.046;2024-01-27T12:02:43;8.10;99.90
16838;DHT22;19510;54.486;9.046;2024-01-27T12:05:09;8.10;99.90
16838;DHT22;19510;54.486;9.046;2024-01-27T12:07:35;8.10;99.90
16838;DHT22;19510;54.486;9.046;2024-01-27T12:10:01;8.00;99.90
16838;DHT22;19510;54.486;9.046;2024-01-27T12:12:27;8.10;99.90
16838;DHT22;19510;54.486;9.046;2024-01-27T12:14:52;8.10;99.90
16838;DHT22;19510;54.486;9.046;2024-01-27T12:17:19;8.20;99.90
16838;DHT22;19510;54.486;9.046;2024-01-27T12:19:49;8.10;99.90
16838;DHT22;19510;54.486;9.046;2024-01-27T12:22:28;8.10;99.90
16838;DHT22;19510;54.486;9.046;2024-01-27T12:24:55;8.00;99.90
16838;DHT22;19510;54.486;9.046;2024-01-27T12:27:24;7.90;99.90
16838;DHT22;19510;54.486;9.046;2024-01-27T12:29:55;7.80;99.90
16838;DHT22;19510;54.486;9.046;2024-01-27T12:32:21;7.90;99.90
16838;DHT22;19510;54.486;9.046;2024-01-27T12:34:47;7.90;99.90
16838;DHT22;19510;54.486;9.046;2024-01-27T12:37:13;7.90;99.90
16838;DHT22;19510;54.486;9.046;2024-01-27T12:39:45;7.90;99.90
16838;DHT22;19510;54.486;9.046;2024-01-27T12:42:11;7.90;99.90
16838;DHT22;19510;54.486;9.046;2024-01-27T12:44:38;7.80;99.90
16838;DHT22;19510;54.486;9.046;2024-01-27T12:47:07;7.80;99.90
16838;DHT22;19510;54.486;9.046;2024-01-27T12:49:37;7.80;99.90
16838;DHT22;19510;54.486;9.046;2024-01-27T12:52:06;7.80;99.90
16838;DHT22;19510;54.486;9.046;2024-01-27T12:54:34;7.80;99.90
16838;DHT22;19510;54.486;9.046;2024-01-27T12:57:03;7.80;99.90
16838;DHT22;19510;54.486;9.046;2024-01-27T12:59:31;7.70;99.90
16838;DHT22;19510;54.486;9.046;2024-01-27T13:01:57;7.70;99.90
16838;DHT22;19510;54.486;9.046;2024-01-27T13:04:23;7.70;99.90
16838;DHT22;19510;54.486;9.046;2024-01-27T13:06:48;7.70;99.90
16838;DHT22;19510;54.486;9.046;2024-01-27T13:09:14;7.80;99.90
16838;DHT22;19510;54.486;9.046;2024-01-27T13:11:42;7.80;99.90
16838;DHT22;19510;54.486;9.046;2024-01-27T13:14:08;7.70;99.90
16838;DHT22;19510;54.486;9.046;2024-01-27T13:16:35;7.60;99.90
16838;DHT22;19510;54.486;9.046;2024-01-27T13:19:00;7.50;99.90
16838;DHT22;19510;54.486;9.046;2024-01-27T13:21:26;7.60;99.90
16838;DHT22;19510;54.486;9.046;2024-01-27T13:23:51;7.60;99.90
16838;DHT22;19510;54.486;9.046;2024-01-27T13:26:18;7.60;99.90
16838;DHT22;19510;54.486;9.046;2024-01-27T13:28:46;7.60;99.90
16838;DHT22;19510;54.486;9.046;2024-01-27T13:31:14;7.60;99.90
16838;DHT22;19510;54.486;9.046;2024-01-27T13:33:42;7.60;99.90
16838;DHT22;19510;54.486;9.046;2024-01-27T13:36:07;7.60;99.90
16838;DHT22;19510;54.486;9.046;2024-01-27T13:38:35;7.60;99.90
16838;DHT22;19510;54.486;9.046;2024-01-27T13:41:01;7.60;99.90
16838;DHT22;19510;54.486;9.046;2024-01-27T13:43:27;7.70;99.90
16838;DHT22;19510;54.486;9.046;2024-01-27T13:45:55;7.60;99.90
16838;DHT22;19510;54.486;9.046;2024-01-27T13:48:21;7.70;99.90
16838;DHT22;19510;54.486;9.046;2024-01-27T13:50:47;7.60;99.90
16838;DHT22;19510;54.486;9.046;2024-01-27T13:53:12;7.70;99.90
16838;DHT22;19510;54.486;9.046;2024-01-27T13:55:38;7.70;99.90
16838;DHT22;19510;54.486;9.046;2024-01-27T13:58:06;7.70;99.90
16838;DHT22;19510;54.486;9.046;2024-01-27T14:00:31;7.70;99.90
16838;DHT22;19510;54.486;9.046;2024-01-27T14:02:59;7.60;99.90
16838;DHT22;19510;54.486;9.046;2024-01-27T14:05:25;7.60;99.90
16838;DHT22;19510;54.486;9.046;2024-01-27T14:07:51;7.70;99.90
16838;DHT22;19510;54.486;9.046;2024-01-27T14:10:17;7.70;99.90
16838;DHT22;19510;54.486;9.046;2024-01-27T14:12:42;7.80;99.90
16838;DHT22;19510;54.486;9.046;2024-01-27T14:15:08;7.80;99.90
16838;DHT22;19510;54.486;9.046;2024-01-27T14:17:35;7.80;99.90
16838;DHT22;19510;54.486;9.046;2024-01-27T14:20:02;7.80;99.90
16838;DHT22;19510;54.486;9.046;2024-01-27T14:22:28;7.80;99.90
16838;DHT22;19510;54.486;9.046;2024-01-27T14:24:54;7.80;99.90
16838;DHT22;19510;54.486;9.046;2024-01-27T14:27:20;7.70;99.90
16838;DHT22;19510;54.486;9.046;2024-01-27T14:33:04;7.60;99.90
16838;DHT22;19510;54.486;9.046;2024-01-27T14:35:32;7.60;99.90
16838;DHT22;19510;54.486;9.046;2024-01-27T14:38:01;7.50;99.90
16838;DHT22;19510;54.486;9.046;2024-01-27T14:40:27;7.50;99.90
16838;DHT22;19510;54.486;9.046;2024-01-27T14:42:57;7.50;99.90
16838;DHT22;19510;54.486;9.046;2024-01-27T14:45:23;7.40;99.90
16838;DHT22;19510;54.486;9.046;2024-01-27T14:47:49;7.30;99.90
16838;DHT22;19510;54.486;9.046;2024-01-27T14:50:14;7.30;99.90
16838;DHT22;19510;54.486;9.046;2024-01-27T14:52:40;7.30;99.90
16838;DHT22;19510;54.486;9.046;2024-01-27T14:55:07;7.30;99.90
16838;DHT22;19510;54.486;9.046;2024-01-27T14:57:34;7.20;99.90
16838;DHT22;19510;54.486;9.046;2024-01-27T15:00:02;7.10;99.90
16838;DHT22;19510;54.486;9.046;2024-01-27T15:02:31;7.10;99.90
16838;DHT22;19510;54.486;9.046;2024-01-27T15:04:57;7.10;99.90
16838;DHT22;19510;54.486;9.046;2024-01-27T15:07:22;7.00;99.90
16838;DHT22;19510;54.486;9.046;2024-01-27T15:09:53;6.90;99.90
16838;DHT22;19510;54.486;9.046;2024-01-27T15:12:18;6.90;99.90
16838;DHT22;19510;54.486;9.046;2024-01-27T15:14:44;6.90;99.90
16838;DHT22;19510;54.486;9.046;2024-01-27T15:17:10;6.90;99.90
16838;DHT22;19510;54.486;9.046;2024-01-27T15:19:36;6.90;99.90
16838;DHT22;19510;54.486;9.046;2024-01-27T15:22:02;6.90;99.90
16838;DHT22;19510;54.486;9.046;2024-01-27T15:24:30;6.90;99.90
16838;DHT22;19510;54.486;9.046;2024-01-27T15:26:59;6.90;99.90
16838;DHT22;19510;54.486;9.046;2024-01-27T15:29:24;6.80;99.90
16838;DHT22;19510;54.486;9.046;2024-01-27T15:31:50;6.70;99.90
16838;DHT22;19510;54.486;9.046;2024-01-27T15:34:16;6.70;99.90
16838;DHT22;19510;54.486;9.046;2024-01-27T15:36:42;6.70;99.90
16838;DHT22;19510;54.486;9.046;2024-01-27T15:39:10;6.70;99.90
16838;DHT22;19510;54.486;9.046;2024-01-27T15:41:39;6.70;99.90
16838;DHT22;19510;54.486;9.046;2024-01-27T15:44:06;6.70;99.90
16838;DHT22;19510;54.486;9.046;2024-01-27T15:46:32;6.60;99.90
16838;DHT22;19510;54.486;9.046;2024-01-27T15:48:58;6.60;99.90
16838;DHT22;19510;54.486;9.046;2024-01-27T15:51:24;6.60;99.90
16838;DHT22;19510;54.486;9.046;2024-01-27T15:53:49;6.60;99.90
16838;DHT22;19510;54.486;9.046;2024-01-27T15:56:15;6.60;99.90
16838;DHT22;19510;54.486;9.046;2024-01-27T15:58:41;6.60;99.90
16838;DHT22;19510;54.486;9.046;2024-01-27T16:01:06;6.50;99.90
16838;DHT22;19510;54.486;9.046;2024-01-27T16:03:36;6.50;99.90
16838;DHT22;19510;54.486;9.046;2024-01-27T16:06:02;6.50;99.90
16838;DHT22;19510;54.486;9.046;2024-01-27T16:08:28;6.50;99.90
16838;DHT22;19510;54.486;9.046;2024-01-27T16:10:53;6.60;99.90
16838;DHT22;19510;54.486;9.046;2024-01-27T16:13:20;6.50;99.90
16838;DHT22;19510;54.486;9.046;2024-01-27T16:15:45;6.50;99.90
16838;DHT22;19510;54.486;9.046;2024-01-27T16:18:11;6.50;99.90
16838;DHT22;19510;54.486;9.046;2024-01-27T16:20:38;6.40;99.90
16838;DHT22;19510;54.486;9.046;2024-01-27T16:23:04;6.50;99.90
16838;DHT22;19510;54.486;9.046;2024-01-27T16:25:31;6.50;99.90
16838;DHT22;19510;54.486;9.046;2024-01-27T16:27:56;6.50;99.90
16838;DHT22;19510;54.486;9.046;2024-01-27T16:30:23;6.50;99.90
16838;DHT22;19510;54.486;9.046;2024-01-27T16:32:48;6.50;99.90
16838;DHT22;19510;54.486;9.046;2024-01-27T16:35:16;6.60;99.90